Saint David, Maine
Current Conditions -  °F | °C
As of 11:53 PM on Thursday 30 Oct 2014 (Local Time) from KFVE Reporting Station
Overcast Overcast  
Wind Chill: 29°   Ceiling: 4800
Heat Index: 36°   Visibility: 10mi
Dew Point: 25°   Wind: 9mph
Humidity: 64%   Direction: 320°NW
Pressure: 29.91"   Gusts: NA
Location:  47.34°N, 68.24°W
Report Text: KFVE 310353Z AUTO 32008KT 10SM OVC048 02/M04 A2991 RMK AO2 SLP135 T00221039
Loading
Personal Weather Stations






























Interactive Weather Map
Tropical Storm Tracking
New forecast layout! Learn more

10-Day Weather Forecast

Advertisements
Track Severe Weather on mobile